Time;durP1;ratioP1;P1;durP2;ratioP2;P2;SDS_P1;SDS_P2;PMS_P1;PMS_P2;Temp;Humidity;BMP_temperature;BMP_pressure;BME280_temperature;BME280_humidity;BME280_pressure;Samples;Min_cycle;Max_cycle;Signal;HPM_P1;HPM_P2
2021/10/29 00:03:09;;;;;;;53.08;27.17;;;;;;;3.87;100.00;99691.06;4434466;80;28454;-81
2021/10/29 00:09:10;;;;;;;49.18;26.85;;;;;;;3.97;100.00;99689.55;4413590;79;28460;-80
2021/10/29 00:15:12;;;;;;;57.83;27.35;;;;;;;3.78;100.00;99693.42;4369765;80;28511;-80
2021/10/29 00:21:13;;;;;;;66.37;30.97;;;;;;;3.78;100.00;99684.62;4340468;81;28436;-81
2021/10/29 00:27:14;;;;;;;58.17;29.57;;;;;;;3.76;100.00;99687.45;4325710;80;28472;-81
2021/10/29 00:33:16;;;;;;;49.93;26.17;;;;;;;3.61;100.00;99684.66;4367639;81;28495;-80
2021/10/29 00:39:18;;;;;;;53.45;27.93;;;;;;;3.44;100.00;99684.70;4369123;81;28446;-81
2021/10/29 00:45:20;;;;;;;53.17;27.17;;;;;;;3.46;100.00;99675.20;4360555;81;28505;-82
2021/10/29 00:51:23;;;;;;;54.58;29.18;;;;;;;3.53;100.00;99678.02;4408348;81;28461;-81
2021/10/29 00:57:25;;;;;;;60.05;30.02;;;;;;;3.49;100.00;99678.37;4376623;78;28511;-81
2021/10/29 01:03:26;;;;;;;63.83;31.02;;;;;;;3.42;100.00;99668.58;4410742;81;28512;-81
2021/10/29 01:09:27;;;;;;;53.10;27.45;;;;;;;3.39;100.00;99664.94;4391107;81;28466;-82
2021/10/29 01:15:29;;;;;;;56.55;28.47;;;;;;;3.29;100.00;99652.66;4411655;81;28471;-81
2021/10/29 01:21:31;;;;;;;48.55;25.92;;;;;;;3.17;100.00;99651.31;4429473;80;28471;-81
2021/10/29 01:27:32;;;;;;;58.90;28.73;;;;;;;3.04;100.00;99645.20;4380217;81;28513;-81
2021/10/29 01:33:34;;;;;;;53.68;28.55;;;;;;;2.97;100.00;99638.41;4391322;80;28504;-83
2021/10/29 01:39:37;;;;;;;60.95;30.25;;;;;;;2.98;100.00;99637.89;4411522;81;28493;-81
2021/10/29 01:45:38;;;;;;;59.50;28.17;;;;;;;2.86;100.00;99629.41;4403842;80;28495;-80
2021/10/29 01:51:40;;;;;;;52.48;27.80;;;;;;;2.70;100.00;99628.91;4326432;82;28498;-80
2021/10/29 01:57:41;;;;;;;52.48;29.23;;;;;;;2.73;100.00;99622.78;4313898;82;28475;-81
2021/10/29 02:03:44;;;;;;;55.55;29.57;;;;;;;2.70;100.00;99616.48;4334124;82;28483;-81
2021/10/29 02:09:45;;;;;;;61.20;30.12;;;;;;;2.60;100.00;99611.34;4333085;82;28517;-81
2021/10/29 02:15:47;;;;;;;54.83;28.25;;;;;;;2.62;100.00;99598.73;4372428;81;28524;-80
2021/10/29 02:21:48;;;;;;;50.55;27.77;;;;;;;2.49;100.00;99599.21;4348780;81;28532;-80
2021/10/29 02:27:50;;;;;;;49.88;26.95;;;;;;;2.55;100.00;99600.38;4341807;81;28502;-81
2021/10/29 02:33:51;;;;;;;55.23;26.68;;;;;;;2.58;100.00;99589.42;4324591;81;28454;-82
2021/10/29 02:39:53;;;;;;;57.23;29.72;;;;;;;2.41;100.00;99592.56;4247793;83;28449;-82
2021/10/29 02:45:55;;;;;;;61.45;29.18;;;;;;;2.40;100.00;99589.58;4305158;81;28514;-81
2021/10/29 02:51:56;;;;;;;57.73;29.70;;;;;;;2.26;100.00;99593.70;4314033;82;28488;-79
2021/10/29 02:57:58;;;;;;;52.70;27.45;;;;;;;2.17;100.00;99585.39;4404386;80;28497;-80
2021/10/29 03:03:59;;;;;;;51.18;27.60;;;;;;;2.04;100.00;99581.90;4356582;80;28462;-81
2021/10/29 03:10:03;;;;;;;52.30;26.52;;;;;;;2.10;100.00;99581.23;4320724;82;28499;-80
2021/10/29 03:16:04;;;;;;;50.73;27.50;;;;;;;2.09;100.00;99581.75;4392137;81;28481;-81
2021/10/29 03:22:06;;;;;;;58.90;28.80;;;;;;;2.01;100.00;99584.85;4397066;80;28488;-82
2021/10/29 03:28:07;;;;;;;56.05;30.15;;;;;;;2.14;100.00;99587.05;4391880;80;28486;-82
2021/10/29 03:34:09;;;;;;;49.48;26.65;;;;;;;1.91;100.00;99581.84;4407905;80;28457;-82
2021/10/29 03:40:36;;;;;;;50.60;26.45;;;;;;;1.88;100.00;99570.75;4444150;80;28503;-81
2021/10/29 03:46:29;;;;;;;56.48;28.92;;;;;;;1.80;100.00;99569.73;4402644;80;28489;-81
2021/10/29 03:52:36;;;;;;;57.38;27.37;;;;;;;1.76;100.00;99571.53;4435693;80;28462;-80
2021/10/29 03:58:34;;;;;;;52.13;27.42;;;;;;;1.73;100.00;99574.00;4375599;81;28547;-80
2021/10/29 04:04:35;;;;;;;47.40;25.43;;;;;;;1.63;100.00;99582.09;4437778;80;28478;-80
2021/10/29 04:10:41;;;;;;;51.68;25.92;;;;;;;1.49;100.00;99572.08;4477661;78;28512;-82
2021/10/29 04:16:40;;;;;;;60.10;27.98;;;;;;;1.51;100.00;99574.06;4429076;80;28492;-79
2021/10/29 04:22:42;;;;;;;54.88;27.98;;;;;;;1.47;100.00;99560.81;4449704;80;28457;-80
2021/10/29 04:28:44;;;;;;;51.73;26.55;;;;;;;1.51;100.00;99564.79;4452657;80;28462;-82
2021/10/29 04:34:45;;;;;;;52.00;26.10;;;;;;;1.46;100.00;99565.78;4433834;80;28469;-82
2021/10/29 04:40:48;;;;;;;55.05;26.62;;;;;;;1.38;100.00;99571.88;4401173;80;28475;-80
2021/10/29 04:46:52;;;;;;;46.08;25.37;;;;;;;1.32;100.00;99569.84;4424401;80;28488;-80
2021/10/29 04:52:53;;;;;;;51.95;26.20;;;;;;;1.39;100.00;99562.94;4443141;79;28479;-80
2021/10/29 04:58:55;;;;;;;47.35;25.12;;;;;;;1.30;100.00;99558.10;4450992;80;28473;-80
2021/10/29 05:04:56;;;;;;;47.88;25.82;;;;;;;1.13;100.00;99565.61;4427979;80;28908;-80
2021/10/29 05:10:57;;;;;;;47.55;23.75;;;;;;;1.04;100.00;99560.26;4451430;80;28488;-81
2021/10/29 05:16:58;;;;;;;55.33;27.13;;;;;;;1.18;100.00;99558.86;4446733;80;28445;-80
2021/10/29 05:23:00;;;;;;;55.28;27.02;;;;;;;1.14;100.00;99558.81;4409466;80;28536;-81
2021/10/29 05:29:01;;;;;;;44.95;23.62;;;;;;;1.21;100.00;99555.88;4400519;80;28514;-81
2021/10/29 05:35:05;;;;;;;50.83;24.60;;;;;;;1.15;100.00;99559.66;4419098;80;28470;-81
2021/10/29 05:41:06;;;;;;;51.98;23.65;;;;;;;1.18;100.00;99555.36;4428586;80;28994;-81
2021/10/29 05:47:08;;;;;;;50.98;25.17;;;;;;;1.25;100.00;99557.25;4451187;80;28473;-82
2021/10/29 05:53:18;;;;;;;47.88;25.90;;;;;;;1.40;100.00;99557.97;4440378;80;28436;-81
2021/10/29 05:59:12;;;;;;;50.83;25.43;;;;;;;1.61;100.00;99552.75;4412710;79;28504;-81
2021/10/29 06:05:14;;;;;;;45.43;24.05;;;;;;;1.67;100.00;99557.42;4386020;80;28550;-82
2021/10/29 06:11:16;;;;;;;49.38;24.63;;;;;;;1.73;100.00;99558.61;4406526;78;28492;-84
2021/10/29 06:17:18;;;;;;;50.38;25.27;;;;;;;1.92;100.00;99567.59;4408924;78;28878;-83
2021/10/29 06:23:22;;;;;;;58.63;27.40;;;;;;;2.14;100.00;99580.41;4397435;79;28504;-82
2021/10/29 06:29:22;;;;;;;56.58;27.42;;;;;;;2.25;100.00;99577.97;4422710;79;28446;-81
2021/10/29 06:35:24;;;;;;;48.63;25.15;;;;;;;2.27;100.00;99590.05;4416422;78;28523;-82
2021/10/29 06:41:25;;;;;;;48.55;24.63;;;;;;;2.43;100.00;99593.22;4408525;79;28487;-84
2021/10/29 07:00:13;;;;;;;51.88;26.87;;;;;;;3.00;100.00;99606.67;4338572;80;28534;-83
2021/10/29 07:39:55;;;;;;;51.83;25.50;;;;;;;3.40;100.00;99608.93;4335108;80;28466;-82
2021/10/29 07:43:54;;;;;;;57.80;28.45;;;;;;;4.39;100.00;99608.98;4329768;80;28425;-83
2021/10/29 07:49:53;;;;;;;56.02;28.52;;;;;;;4.49;100.00;99599.45;4362923;80;28587;-83
2021/10/29 07:55:57;;;;;;;60.63;28.25;;;;;;;4.71;100.00;99589.77;4333829;80;28442;-84
2021/10/29 08:01:58;;;;;;;49.63;26.87;;;;;;;4.94;100.00;99590.23;4362763;80;28526;-82
2021/10/29 08:08:00;;;;;;;58.23;30.80;;;;;;;5.24;100.00;99594.28;4388348;80;28466;-83
2021/10/29 08:14:01;;;;;;;60.38;31.65;;;;;;;5.46;100.00;99588.23;4435943;78;28443;-82
2021/10/29 08:20:08;;;;;;;61.92;32.15;;;;;;;5.65;100.00;99591.69;4357182;80;28448;-82
2021/10/29 08:26:11;;;;;;;58.75;31.55;;;;;;;5.85;100.00;99593.26;4358630;80;28470;-81
2021/10/29 08:32:13;;;;;;;52.90;27.95;;;;;;;6.03;100.00;99590.73;4289623;80;28513;-80
2021/10/29 08:38:16;;;;;;;56.23;27.45;;;;;;;6.22;100.00;99585.29;4368572;78;28978;-80
2021/10/29 08:44:17;;;;;;;51.73;26.65;;;;;;;6.50;100.00;99582.37;4381034;78;28515;-82
2021/10/29 08:50:19;;;;;;;54.00;29.92;;;;;;;6.72;100.00;99578.35;4429891;79;28558;-81
2021/10/29 08:56:23;;;;;;;63.48;31.50;;;;;;;6.98;100.00;99582.59;4408559;79;28447;-82
2021/10/29 09:02:31;;;;;;;58.60;30.23;;;;;;;7.18;100.00;99584.58;4356820;80;28518;-83
2021/10/29 09:09:09;;;;;;;59.05;30.72;;;;;;;7.33;100.00;99569.77;4408088;79;28463;-80
2021/10/29 09:34:11;;;;;;;53.50;30.50;;;;;;;8.27;100.00;99565.28;4424671;79;28508;-81
2021/10/29 09:40:14;;;;;;;58.00;28.60;;;;;;;8.45;100.00;99563.38;4429283;78;28515;-82
2021/10/29 09:46:30;;;;;;;56.28;28.05;;;;;;;8.71;100.00;99566.32;4402595;79;28478;-80
2021/10/29 09:58:52;;;;;;;54.20;27.77;;;;;;;9.08;100.00;99553.83;4356828;80;20470;-82
2021/10/29 10:04:57;;;;;;;41.55;22.37;;;;;;;9.34;100.00;99557.78;4373348;80;28523;-82
2021/10/29 10:10:59;;;;;;;49.50;22.52;;;;;;;9.58;100.00;99551.94;4356964;80;28461;-83
2021/10/29 10:17:01;;;;;;;54.93;27.40;;;;;;;9.69;100.00;99544.56;4326946;80;28540;-84
2021/10/29 10:23:05;;;;;;;48.65;25.65;;;;;;;9.94;100.00;99543.82;4341975;80;28425;-82
2021/10/29 10:29:20;;;;;;;46.48;22.67;;;;;;;10.08;100.00;99544.58;4409965;79;28508;-83
2021/10/29 10:41:55;;;;;;;43.38;23.80;;;;;;;10.26;100.00;99531.78;4318675;82;28546;-83
2021/10/29 10:47:47;;;;;;;35.92;19.00;;;;;;;10.43;100.00;99520.52;4349509;79;28466;-82
2021/10/29 10:53:54;;;;;;;30.72;17.82;;;;;;;10.61;97.04;99529.16;4428305;78;28511;-81
2021/10/29 11:00:31;;;;;;;26.48;17.15;;;;;;;10.66;100.00;99515.89;4338991;80;28519;-79
2021/10/29 11:06:55;;;;;;;28.40;15.48;;;;;;;10.81;100.00;99512.03;4338311;81;28541;-80
2021/10/29 11:13:04;;;;;;;26.48;14.47;;;;;;;11.11;100.00;99514.86;4413339;79;28429;-81
2021/10/29 11:19:16;;;;;;;26.57;12.73;;;;;;;11.26;98.65;99506.42;4338454;80;28511;-82
2021/10/29 11:25:18;;;;;;;23.80;12.25;;;;;;;11.36;99.62;99503.20;4336653;80;28486;-81
2021/10/29 11:31:25;;;;;;;23.35;12.37;;;;;;;11.50;97.11;99489.05;4421629;78;28540;-79
2021/10/29 11:37:35;;;;;;;22.48;11.97;;;;;;;11.73;90.93;99476.74;4348827;80;28459;-79
2021/10/29 11:43:35;;;;;;;22.02;12.18;;;;;;;11.90;90.42;99468.84;4340412;80;28531;-78
2021/10/29 11:49:37;;;;;;;22.05;12.53;;;;;;;12.03;87.47;99461.64;4332746;80;28503;-79
2021/10/29 12:08:01;;;;;;;21.70;13.15;;;;;;;12.48;86.94;99445.48;4377763;79;28508;-79
2021/10/29 12:14:02;;;;;;;22.17;12.10;;;;;;;12.53;87.65;99435.63;4378883;79;28466;-81
2021/10/29 12:20:07;;;;;;;22.40;11.97;;;;;;;12.62;87.45;99433.42;4374859;78;28518;-80
2021/10/29 12:26:14;;;;;;;22.80;12.50;;;;;;;12.76;86.65;99427.78;4405889;78;28484;-80
2021/10/29 12:32:44;;;;;;;20.30;12.13;;;;;;;12.93;88.79;99419.27;4357940;80;28462;-78
2021/10/29 12:38:48;;;;;;;21.87;10.80;;;;;;;13.07;86.70;99422.53;4345956;80;34428;-78
2021/10/29 13:04:10;;;;;;;20.48;11.38;;;;;;;13.25;83.04;99403.98;4284681;79;28501;-78
2021/10/29 13:10:11;;;;;;;20.70;12.25;;;;;;;13.52;75.97;99391.27;4409944;79;28523;-78
2021/10/29 13:16:15;;;;;;;20.32;11.60;;;;;;;13.41;82.74;99395.36;4410503;78;28533;-79
2021/10/29 13:28:39;;;;;;;23.05;12.15;;;;;;;13.50;81.67;99384.49;4417571;78;28452;-79
2021/10/29 13:53:49;;;;;;;15.43;9.50;;;;;;;13.61;80.79;99360.65;4410210;78;28445;-82
2021/10/29 14:00:08;;;;;;;16.15;8.83;;;;;;;13.60;82.36;99358.19;4410017;78;28466;-85
2021/10/29 14:31:10;;;;;;;15.10;7.20;;;;;;;13.48;80.48;99340.16;4420419;78;28469;-75
2021/10/29 14:37:28;;;;;;;15.08;8.08;;;;;;;13.44;80.21;99336.31;4391580;79;28509;-77
2021/10/29 14:43:30;;;;;;;16.70;6.75;;;;;;;13.33;80.12;99332.56;4360964;80;28543;-77
2021/10/29 15:27:05;;;;;;;13.62;6.33;;;;;;;12.18;91.74;99329.96;4368131;80;28506;-80
2021/10/29 15:45:45;;;;;;;17.70;7.63;;;;;;;11.63;98.09;99318.41;4367687;79;28547;-80
2021/10/29 15:51:57;;;;;;;15.10;7.25;;;;;;;11.39;100.00;99320.21;4343322;79;28472;-77
2021/10/29 15:58:18;;;;;;;12.58;6.62;;;;;;;11.01;100.00;99321.64;4361933;78;28554;-79
2021/10/29 16:17:10;;;;;;;12.63;6.47;;;;;;;10.28;100.00;99332.17;4346780;79;28476;-79
2021/10/29 16:23:10;;;;;;;16.50;7.73;;;;;;;10.15;100.00;99329.59;4386407;80;28506;-77
2021/10/29 16:29:14;;;;;;;15.43;7.62;;;;;;;9.99;100.00;99330.46;4387589;79;28472;-79
2021/10/29 16:35:16;;;;;;;19.40;7.42;;;;;;;9.84;100.00;99321.90;4389057;78;28532;-77
2021/10/29 16:41:17;;;;;;;15.08;7.50;;;;;;;9.62;100.00;99324.95;4367699;81;28958;-85
2021/10/29 16:47:21;;;;;;;13.53;6.92;;;;;;;9.59;100.00;99329.43;4413876;79;28480;-78
2021/10/29 16:53:22;;;;;;;14.65;6.97;;;;;;;9.08;100.00;99325.30;4401389;81;28469;-77
2021/10/29 16:59:25;;;;;;;17.10;8.00;;;;;;;8.85;100.00;99328.48;4399013;79;28444;-76
2021/10/29 17:05:27;;;;;;;17.40;7.05;;;;;;;8.93;100.00;99323.72;4423452;79;28496;-85
2021/10/29 17:11:28;;;;;;;12.07;6.70;;;;;;;8.84;100.00;99324.16;4354698;81;28535;-80
2021/10/29 17:17:29;;;;;;;14.07;7.37;;;;;;;8.45;100.00;99330.75;4397879;80;28522;-80
2021/10/29 17:23:31;;;;;;;17.12;7.95;;;;;;;8.45;100.00;99333.44;4422177;79;28488;-78
2021/10/29 17:29:33;;;;;;;21.42;9.83;;;;;;;8.28;100.00;99332.56;4414124;79;28558;-78
2021/10/29 17:35:35;;;;;;;16.85;7.17;;;;;;;8.21;100.00;99332.55;4362951;80;28452;-76
2021/10/29 17:41:38;;;;;;;14.90;6.83;;;;;;;8.03;100.00;99327.83;4356927;81;28462;-81
2021/10/29 17:47:41;;;;;;;17.07;8.10;;;;;;;7.76;100.00;99343.91;4347990;81;28499;-79
2021/10/29 17:53:42;;;;;;;16.32;8.35;;;;;;;7.63;100.00;99335.35;4347516;81;28868;-77
2021/10/29 17:59:44;;;;;;;21.60;8.95;;;;;;;7.53;100.00;99329.05;4441531;78;28453;-78
2021/10/29 18:05:45;;;;;;;18.73;8.60;;;;;;;7.44;100.00;99326.78;4423110;78;28450;-82
2021/10/29 18:11:47;;;;;;;16.20;7.72;;;;;;;7.41;100.00;99325.86;4396407;78;28483;-77
2021/10/29 18:17:48;;;;;;;15.20;7.03;;;;;;;7.20;100.00;99327.14;4453999;79;28486;-76
2021/10/29 18:23:54;;;;;;;16.77;8.25;;;;;;;7.02;100.00;99330.37;4481312;78;28450;-77
2021/10/29 18:29:56;;;;;;;18.15;8.45;;;;;;;7.02;100.00;99329.55;4417150;79;28495;-78
2021/10/29 18:35:58;;;;;;;16.93;8.23;;;;;;;6.79;100.00;99326.19;4427585;79;28556;-76
2021/10/29 18:42:00;;;;;;;15.90;7.72;;;;;;;6.78;100.00;99326.38;4454123;78;28517;-82
2021/10/29 18:48:02;;;;;;;20.12;8.73;;;;;;;6.62;100.00;99323.03;4410259;78;28509;-80
2021/10/29 18:54:06;;;;;;;23.92;11.05;;;;;;;6.58;100.00;99336.98;4407376;79;28489;-80
2021/10/29 19:00:09;;;;;;;23.98;10.98;;;;;;;6.47;100.00;99330.34;4392615;79;28504;-86
2021/10/29 19:06:15;;;;;;;26.62;12.65;;;;;;;6.27;100.00;99332.38;4360972;80;28460;-88
2021/10/29 19:12:14;;;;;;;27.90;12.65;;;;;;;6.47;100.00;99341.02;4366950;80;28525;-86
2021/10/29 19:18:16;;;;;;;25.70;12.73;;;;;;;6.46;100.00;99342.05;4339004;80;28582;-82
2021/10/29 19:24:18;;;;;;;28.87;12.35;;;;;;;6.17;100.00;99356.77;4341389;81;28626;-85
2021/10/29 19:30:20;;;;;;;31.12;13.93;;;;;;;6.20;100.00;99356.89;4323363;82;28558;-84
2021/10/29 19:36:41;;;;;;;27.27;13.98;;;;;;;6.08;100.00;99352.06;4341331;80;29006;-86
2021/10/29 19:42:31;;;;;;;32.30;15.00;;;;;;;5.88;100.00;99357.22;4324327;82;28515;-86
2021/10/29 19:48:32;;;;;;;31.05;14.47;;;;;;;5.66;100.00;99351.06;4334187;80;28455;-84
2021/10/29 19:54:37;;;;;;;26.10;12.07;;;;;;;5.63;100.00;99360.79;4352742;80;28471;-86
2021/10/29 20:00:42;;;;;;;24.07;12.10;;;;;;;5.38;100.00;99359.84;4356924;79;28482;-85
2021/10/29 20:06:43;;;;;;;27.30;13.88;;;;;;;5.35;100.00;99363.70;4346757;80;28456;-85
2021/10/29 20:12:44;;;;;;;35.03;17.15;;;;;;;5.36;100.00;99362.68;4362971;79;28526;-85
2021/10/29 20:18:46;;;;;;;34.38;17.17;;;;;;;5.33;100.00;99358.23;4362943;79;28466;-87
2021/10/29 20:24:48;;;;;;;40.48;20.70;;;;;;;5.27;100.00;99363.81;4349851;80;28573;-87
2021/10/29 20:30:49;;;;;;;38.70;19.00;;;;;;;5.41;100.00;99358.12;4362117;79;28548;-85
2021/10/29 20:36:52;;;;;;;37.08;18.15;;;;;;;5.13;100.00;99360.16;4360456;79;28498;-83
2021/10/29 20:42:55;;;;;;;33.20;17.10;;;;;;;5.07;100.00;99361.74;4348236;79;28488;-84
2021/10/29 20:48:57;;;;;;;32.35;15.43;;;;;;;5.13;100.00;99355.67;4354841;79;28462;-84
2021/10/29 20:54:58;;;;;;;42.53;20.23;;;;;;;5.13;100.00;99366.83;4362293;80;28533;-83
2021/10/29 21:01:00;;;;;;;49.33;22.32;;;;;;;4.93;100.00;99361.27;4415365;78;28508;-82
2021/10/29 21:07:02;;;;;;;44.83;20.57;;;;;;;4.99;100.00;99368.02;4390441;78;28530;-82
2021/10/29 21:13:03;;;;;;;43.95;19.65;;;;;;;4.84;100.00;99373.36;4389911;78;28425;-85
2021/10/29 21:19:07;;;;;;;38.98;18.82;;;;;;;4.69;100.00;99365.38;4415698;78;28498;-84
2021/10/29 21:25:09;;;;;;;38.33;18.00;;;;;;;4.70;100.00;99369.69;4423916;79;28493;-84
2021/10/29 21:31:11;;;;;;;39.98;19.00;;;;;;;4.79;100.00;99373.59;4429899;78;28519;-83
2021/10/29 21:37:13;;;;;;;42.73;21.35;;;;;;;4.51;100.00;99372.91;4395899;78;28470;-82
2021/10/29 21:43:14;;;;;;;37.73;20.43;;;;;;;4.50;100.00;99377.91;4347966;80;28583;-84
2021/10/29 21:49:16;;;;;;;39.65;19.37;;;;;;;4.43;100.00;99377.81;4350818;79;28547;-83
2021/10/29 21:55:18;;;;;;;38.35;19.35;;;;;;;4.28;100.00;99373.31;4319264;80;28534;-82
2021/10/29 22:01:19;;;;;;;38.48;19.62;;;;;;;4.48;100.00;99375.45;4320067;80;29118;-82
2021/10/29 22:07:21;;;;;;;44.45;22.93;;;;;;;4.41;100.00;99378.51;4398423;79;28535;-84
2021/10/29 22:13:22;;;;;;;48.85;22.25;;;;;;;4.51;100.00;99370.24;4351279;80;28444;-84
2021/10/29 22:19:24;;;;;;;42.58;23.42;;;;;;;4.27;100.00;99373.00;4331040;80;28510;-82
2021/10/29 22:25:26;;;;;;;44.53;20.43;;;;;;;4.11;100.00;99369.95;4348604;80;28515;-82
2021/10/29 22:31:27;;;;;;;39.35;19.27;;;;;;;4.07;100.00;99370.02;4381474;80;28471;-82
2021/10/29 22:37:29;;;;;;;42.98;21.93;;;;;;;4.03;100.00;99375.38;4369410;80;28498;-82
2021/10/29 22:43:30;;;;;;;43.85;22.45;;;;;;;3.97;100.00;99364.95;4345002;80;28576;-82
2021/10/29 22:49:32;;;;;;;48.90;21.50;;;;;;;3.87;100.00;99363.05;4387334;79;28472;-83
2021/10/29 22:55:34;;;;;;;40.65;20.92;;;;;;;3.67;100.00;99372.00;4380913;79;28512;-81
2021/10/29 23:01:35;;;;;;;39.92;20.45;;;;;;;3.80;100.00;99368.27;4270945;81;28538;-81
2021/10/29 23:07:36;;;;;;;45.60;21.95;;;;;;;3.75;100.00;99375.45;4359071;79;28505;-82
2021/10/29 23:13:38;;;;;;;41.55;21.82;;;;;;;3.73;100.00;99373.96;4364757;79;28527;-82
2021/10/29 23:19:39;;;;;;;45.17;24.00;;;;;;;3.75;100.00;99377.27;4371573;79;28489;-82
2021/10/29 23:25:42;;;;;;;46.63;23.50;;;;;;;3.65;100.00;99376.67;4395669;79;28454;-82
2021/10/29 23:31:43;;;;;;;50.63;22.90;;;;;;;3.42;100.00;99378.83;4381894;79;28519;-83
2021/10/29 23:37:45;;;;;;;40.55;20.85;;;;;;;3.45;100.00;99375.81;4381388;79;28479;-83
2021/10/29 23:43:46;;;;;;;40.85;19.95;;;;;;;3.30;100.00;99371.27;4353752;79;28433;-84
2021/10/29 23:49:47;;;;;;;42.95;21.00;;;;;;;3.08;100.00;99365.41;4366161;79;28454;-84
2021/10/29 23:55:48;;;;;;;45.48;23.32;;;;;;;3.24;100.00;99357.33;4341027;79;28462;-83
